Friday, November 21, 2014
08:34 UTC
  |  Log In   |  Register Free
Airport Search:

Chanute Martin Johnson Airport
(KCNU)

Chanute Martin Johnson Airport Diagram
No Airport Diagram Available

FAA data valid effective November 13, 2014 - January 08, 2015 (unless otherwise noted).

 
 
 
 
 
 
 
 
 
 
 
 
 
 

Current Aviation Weather for Chanute Martin Johnson Airport (KCNU)

The most recent METAR observation for KCNU was updated at: 0810
METAR Summary (Translated METAR)
KCNU
210752Z AUTO 08008KT 10SM CLR 01/M05 A3018 RMK AO2 SLP224 T00061050
KPPF
210752Z AUTO VRB06KT 10SM CLR 01/M04 A3018 RMK AO2 SLP222 T00111039
(20.3 nm SW from KCNU)
KIDP
210755Z AUTO 04005KT 10SM CLR 00/M04 A3016 RMK AO2
(33.7 nm SW from KCNU)
TAF Summary (Translated TAF)
KCNU
210540Z 2106/2206 08009KT P6SM SCT150 FM211000 08009KT P6SM BKN040 BKN150 FM211200 09009KT P6SM OVC008 FM211400 10009KT 2SM -DZ BR OVC004
  Airport Weather Conditions for KCNU

 Current Weather at CNU
33° F
Fair
East winds at 9.2 mph
CNU NOAA Radar

Pressure: 30.18 in
Humidity: 66%
Wind: East at 9.2 MPH (8 KT)
Dew Point: 23.0°F
Visibility: 10.00 mi


Airport Weather Forecast for KCNU

Translated METAR and TAF for KCNU
Translated METAR for KCNU (0829 UTC 21 November 2014)
found at http://aviationweather.gov/adds/metars/
 
METAR text: KCNU 210752Z AUTO 08008KT 10SM CLR 01/M05 A3018 RMK AO2 SLP224 T00061050
Conditions at: KCNU (CHANUTE , KS, US) observed 0752 UTC 21 November 2014
Temperature: 0.6°C (33°F)
Dewpoint: -5.0°C (23°F) [RH = 66%]
Pressure (altimeter): 30.18 inches Hg (1022.1 mb)
[Sea-level pressure: 1022.4 mb]
Winds: from the E (80 degrees) at 9 MPH (8 knots; 4.2 m/s)
Visibility: 10 or more miles (16+ km)
Ceiling: at least 12,000 feet AGL
Clouds: sky clear below 12,000 feet AGL
Weather: automated observation with no human augmentation;
there may or may not be significant weather present at this time
Translated TAF for KCNU
Forecast for: KCNU (CHANUTE , KS, US)
TAF Text: KCNU 210540Z 2106/2206 08009KT P6SM SCT150
Forecast period: 0600 to 1000 UTC 21 November 2014
Forecast type: FROM: standard forecast or significant change
Winds: from the E (80 degrees) at 10 MPH (9 knots; 4.7 m/s)
Visibility: 6 or more miles (10+ km)
Clouds: scattered clouds at 15000 feet AGL
Weather: no significant weather forecast for this period
TAF Text: FM211000 08009KT P6SM BKN040 BKN150
Forecast period: 1000 to 1200 UTC 21 November 2014
Forecast type: FROM: standard forecast or significant change
Winds: from the E (80 degrees) at 10 MPH (9 knots; 4.7 m/s)
Visibility: 6 or more miles (10+ km)
Ceiling: 4000 feet AGL
Clouds: broken clouds at 4000 feet AGL
broken clouds at 15000 feet AGL
Weather: no significant weather forecast for this period
TAF Text: FM211200 09009KT P6SM OVC008
Forecast period: 1200 to 1400 UTC 21 November 2014
Forecast type: FROM: standard forecast or significant change
Winds: from the E (90 degrees) at 10 MPH (9 knots; 4.7 m/s)
Visibility: 6 or more miles (10+ km)
Ceiling: 800 feet AGL
Clouds: overcast cloud deck at 800 feet AGL
Weather: no significant weather forecast for this period
TAF Text: FM211400 10009KT 2SM -DZ BR OVC004
Forecast period: 1400 UTC 21 November 2014 to 0600 UTC 22 November 2014
Forecast type: FROM: standard forecast or significant change
Winds: from the E (100 degrees) at 10 MPH (9 knots; 4.7 m/s)
Visibility: 2.00 miles (3.22 km)
Ceiling: 400 feet AGL
Clouds: overcast cloud deck at 400 feet AGL
Weather: -DZ BR  (light drizzle, mist)

Find All Airport Services Find A Hotel Find A Rental Car Find A Golf Course Find A Restaurant $100 Hamburger



FBO's on the Field
FBO Company Facility Photos Services Transportation Aviation Fuel Prices: Prices include tax
Catering Weather Repair Courtesy Rental Type 100LL JetA JetA+ MOGAS 8087
 
City of Chanute

This FBO has not yet been rated
FS:Phillips 66
Last Updated: Nov-14
Login to update fuel prices
SS:
Contact City of ChanuteMore FBO Information
 
Add another FBO Facility Photos Catering Weather Repair Courtesy Rental Type 100LL JetA JetA+ MOGAS 8087
Services Transportation Aviation Fuel Prices: Prices include tax


model-print
model-print
model-print
model-print